Terminal Aerodrome Forecast
Issued by NWS Cleveland, OH

Home | Current Version | Previous Version | Text Only | Print | Product List | Glossary Off
Versions: 1 2 3 4 5 6 7 8 9 10 11 12 13 14 15 16 17 18

000
FTUS41 KCLE 250321 AAA
TAFERI
TAF AMD
KERI 250321Z 2503/2524 19012G20KT P6SM SCT045 BKN100
      TEMPO 2505/2508 5SM -SHRA OVC035
     FM250800 21008KT P6SM SCT100
     FM251500 21010KT P6SM BKN020
     FM251700 21010G20KT P6SM BKN040
     FM252200 23010G30KT 3SM TSRA OVC025CB=

USA.gov is the U.S. government's official web portal to all federal, state and local government web resources and services.